sensor_id;sensor_type;location;lat;lon;timestamp;pressure;altitude;pressure_sealevel;temperature;humidity
23899;BME280;20544;50.018;20.010;2023-02-07T00:00:55;101129.35;;;-6.04;100.00
23899;BME280;20544;50.018;20.010;2023-02-07T00:04:13;101133.63;;;-6.02;100.00
23899;BME280;20544;50.018;20.010;2023-02-07T00:07:29;101139.69;;;-6.06;100.00
23899;BME280;20544;50.018;20.010;2023-02-07T00:10:46;101133.63;;;-6.02;100.00
23899;BME280;20544;50.018;20.010;2023-02-07T00:14:03;101134.50;;;-6.03;100.00
23899;BME280;20544;50.018;20.010;2023-02-07T00:17:20;101141.41;;;-6.05;100.00
23899;BME280;20544;50.018;20.010;2023-02-07T00:20:36;101140.75;;;-6.22;100.00
23899;BME280;20544;50.018;20.010;2023-02-07T00:23:53;101134.05;;;-6.39;100.00
23899;BME280;20544;50.018;20.010;2023-02-07T00:27:10;101126.36;;;-6.45;100.00
23899;BME280;20544;50.018;20.010;2023-02-07T00:30:27;101119.47;;;-6.46;100.00
23899;BME280;20544;50.018;20.010;2023-02-07T00:33:46;101137.53;;;-6.44;100.00
23899;BME280;20544;50.018;20.010;2023-02-07T00:37:04;101129.80;;;-6.46;100.00
23899;BME280;20544;50.018;20.010;2023-02-07T00:40:21;101115.32;;;-6.61;100.00
23899;BME280;20544;50.018;20.010;2023-02-07T00:43:38;101097.28;;;-6.66;100.00
23899;BME280;20544;50.018;20.010;2023-02-07T00:46:55;101099.94;;;-6.70;100.00
23899;BME280;20544;50.018;20.010;2023-02-07T00:50:12;101105.05;;;-6.67;100.00
23899;BME280;20544;50.018;20.010;2023-02-07T00:53:30;101105.88;;;-6.63;100.00
23899;BME280;20544;50.018;20.010;2023-02-07T00:56:47;101092.02;;;-6.55;100.00
23899;BME280;20544;50.018;20.010;2023-02-07T01:00:06;101100.61;;;-6.53;100.00
23899;BME280;20544;50.018;20.010;2023-02-07T01:03:25;101089.47;;;-6.59;100.00
23899;BME280;20544;50.018;20.010;2023-02-07T01:06:41;101095.59;;;-6.67;100.00
23899;BME280;20544;50.018;20.010;2023-02-07T01:09:57;101092.08;;;-6.61;100.00
23899;BME280;20544;50.018;20.010;2023-02-07T01:13:15;101080.11;;;-6.67;100.00
23899;BME280;20544;50.018;20.010;2023-02-07T01:16:34;101088.03;;;-6.85;100.00
23899;BME280;20544;50.018;20.010;2023-02-07T01:19:51;101086.33;;;-6.89;100.00
23899;BME280;20544;50.018;20.010;2023-02-07T01:23:09;101091.56;;;-6.97;100.00
23899;BME280;20544;50.018;20.010;2023-02-07T01:26:28;101074.36;;;-6.98;100.00
23899;BME280;20544;50.018;20.010;2023-02-07T01:29:45;101089.01;;;-6.99;100.00
23899;BME280;20544;50.018;20.010;2023-02-07T01:33:03;101082.09;;;-6.95;100.00
23899;BME280;20544;50.018;20.010;2023-02-07T01:36:20;101070.97;;;-7.03;100.00
23899;BME280;20544;50.018;20.010;2023-02-07T01:39:38;101079.59;;;-7.03;100.00
23899;BME280;20544;50.018;20.010;2023-02-07T01:42:55;101073.66;;;-7.16;100.00
23899;BME280;20544;50.018;20.010;2023-02-07T01:46:12;101067.61;;;-7.13;100.00
23899;BME280;20544;50.018;20.010;2023-02-07T01:49:31;101071.91;;;-7.12;100.00
23899;BME280;20544;50.018;20.010;2023-02-07T01:52:49;101065.90;;;-7.14;100.00
23899;BME280;20544;50.018;20.010;2023-02-07T01:56:09;101064.17;;;-7.12;100.00
23899;BME280;20544;50.018;20.010;2023-02-07T01:59:29;101055.72;;;-7.29;100.00
23899;BME280;20544;50.018;20.010;2023-02-07T02:02:49;101049.80;;;-7.41;100.00
23899;BME280;20544;50.018;20.010;2023-02-07T02:06:08;101049.00;;;-7.48;100.00
23899;BME280;20544;50.018;20.010;2023-02-07T02:09:27;101061.05;;;-7.50;100.00
23899;BME280;20544;50.018;20.010;2023-02-07T02:12:57;101055.01;;;-7.50;100.00
23899;BME280;20544;50.018;20.010;2023-02-07T02:16:33;101067.80;;;-7.35;100.00
23899;BME280;20544;50.018;20.010;2023-02-07T02:20:12;101072.08;;;-7.32;100.00
23899;BME280;20544;50.018;20.010;2023-02-07T02:23:40;101078.17;;;-7.41;100.00
23899;BME280;20544;50.018;20.010;2023-02-07T02:27:07;101080.75;;;-7.41;100.00
23899;BME280;20544;50.018;20.010;2023-02-07T02:30:40;101094.48;;;-7.40;100.00
23899;BME280;20544;50.018;20.010;2023-02-07T02:34:12;101101.40;;;-7.42;100.00
23899;BME280;20544;50.018;20.010;2023-02-07T02:37:35;101093.62;;;-7.36;100.00
23899;BME280;20544;50.018;20.010;2023-02-07T02:40:59;101087.61;;;-7.38;100.00
23899;BME280;20544;50.018;20.010;2023-02-07T02:44:21;101084.16;;;-7.37;100.00
23899;BME280;20544;50.018;20.010;2023-02-07T02:47:42;101080.75;;;-7.44;100.00
23899;BME280;20544;50.018;20.010;2023-02-07T02:51:00;101076.52;;;-7.50;100.00
23899;BME280;20544;50.018;20.010;2023-02-07T02:54:30;101079.95;;;-7.51;100.00
23899;BME280;20544;50.018;20.010;2023-02-07T02:57:56;101088.64;;;-7.62;100.00
23899;BME280;20544;50.018;20.010;2023-02-07T03:01:21;101098.86;;;-7.49;100.00
23899;BME280;20544;50.018;20.010;2023-02-07T03:04:51;101100.50;;;-7.38;100.00
23899;BME280;20544;50.018;20.010;2023-02-07T03:08:23;101100.60;;;-7.52;100.00
23899;BME280;20544;50.018;20.010;2023-02-07T03:11:46;101107.50;;;-7.56;100.00
23899;BME280;20544;50.018;20.010;2023-02-07T03:15:10;101098.08;;;-7.63;100.00
23899;BME280;20544;50.018;20.010;2023-02-07T03:18:30;101092.06;;;-7.65;100.00
23899;BME280;20544;50.018;20.010;2023-02-07T03:21:52;101088.66;;;-7.67;100.00
23899;BME280;20544;50.018;20.010;2023-02-07T03:25:10;101094.68;;;-7.68;100.00
23899;BME280;20544;50.018;20.010;2023-02-07T03:28:33;101101.57;;;-7.69;100.00
23899;BME280;20544;50.018;20.010;2023-02-07T03:31:53;101109.25;;;-7.64;100.00
23899;BME280;20544;50.018;20.010;2023-02-07T03:35:15;101099.76;;;-7.56;100.00
23899;BME280;20544;50.018;20.010;2023-02-07T03:38:33;101092.02;;;-7.56;100.00
23899;BME280;20544;50.018;20.010;2023-02-07T03:41:53;101093.69;;;-7.47;100.00
23899;BME280;20544;50.018;20.010;2023-02-07T03:45:15;101101.34;;;-7.35;100.00
23899;BME280;20544;50.018;20.010;2023-02-07T03:48:33;101092.72;;;-7.32;100.00
23899;BME280;20544;50.018;20.010;2023-02-07T03:51:50;101095.28;;;-7.31;100.00
23899;BME280;20544;50.018;20.010;2023-02-07T03:55:07;101096.05;;;-7.19;100.00
23899;BME280;20544;50.018;20.010;2023-02-07T03:58:26;101097.74;;;-7.17;100.00
23899;BME280;20544;50.018;20.010;2023-02-07T04:01:43;101098.58;;;-7.13;100.00
23899;BME280;20544;50.018;20.010;2023-02-07T04:04:59;101098.50;;;-7.05;100.00
23899;BME280;20544;50.018;20.010;2023-02-07T04:08:16;101090.73;;;-7.01;100.00
23899;BME280;20544;50.018;20.010;2023-02-07T04:11:32;101090.75;;;-7.02;100.00
23899;BME280;20544;50.018;20.010;2023-02-07T04:14:48;101092.44;;;-6.96;100.00
23899;BME280;20544;50.018;20.010;2023-02-07T04:18:05;101101.05;;;-6.97;100.00
23899;BME280;20544;50.018;20.010;2023-02-07T04:21:21;101107.05;;;-6.97;100.00
23899;BME280;20544;50.018;20.010;2023-02-07T04:24:38;101098.48;;;-7.01;100.00
23899;BME280;20544;50.018;20.010;2023-02-07T04:27:55;101092.48;;;-7.04;100.00
23899;BME280;20544;50.018;20.010;2023-02-07T04:31:11;101094.22;;;-7.05;100.00
23899;BME280;20544;50.018;20.010;2023-02-07T04:34:28;101100.28;;;-7.09;100.00
23899;BME280;20544;50.018;20.010;2023-02-07T04:37:45;101098.59;;;-7.11;100.00
23899;BME280;20544;50.018;20.010;2023-02-07T04:41:02;101100.34;;;-7.15;100.00
23899;BME280;20544;50.018;20.010;2023-02-07T04:44:20;101082.33;;;-7.24;100.00
23899;BME280;20544;50.018;20.010;2023-02-07T04:47:37;101092.63;;;-7.20;100.00
23899;BME280;20544;50.018;20.010;2023-02-07T04:50:55;101107.24;;;-7.19;100.00
23899;BME280;20544;50.018;20.010;2023-02-07T04:54:12;101103.71;;;-7.08;100.00
23899;BME280;20544;50.018;20.010;2023-02-07T04:57:28;101106.21;;;-6.97;100.00
23899;BME280;20544;50.018;20.010;2023-02-07T05:00:45;101109.59;;;-6.92;100.00
23899;BME280;20544;50.018;20.010;2023-02-07T05:04:02;101106.19;;;-6.96;100.00
23899;BME280;20544;50.018;20.010;2023-02-07T05:07:19;101095.10;;;-7.07;100.00
23899;BME280;20544;50.018;20.010;2023-02-07T05:10:35;101098.52;;;-7.04;100.00
23899;BME280;20544;50.018;20.010;2023-02-07T05:13:52;101094.22;;;-7.05;100.00
23899;BME280;20544;50.018;20.010;2023-02-07T05:17:09;101096.76;;;-7.02;100.00
23899;BME280;20544;50.018;20.010;2023-02-07T05:20:26;101099.38;;;-7.05;100.00
23899;BME280;20544;50.018;20.010;2023-02-07T05:23:43;101103.71;;;-7.08;100.00
23899;BME280;20544;50.018;20.010;2023-02-07T05:27:00;101115.75;;;-7.10;100.00
23899;BME280;20544;50.018;20.010;2023-02-07T05:30:17;101115.75;;;-7.07;100.00
23899;BME280;20544;50.018;20.010;2023-02-07T05:33:34;101111.53;;;-7.19;100.00
23899;BME280;20544;50.018;20.010;2023-02-07T05:36:51;101116.68;;;-7.16;100.00
23899;BME280;20544;50.018;20.010;2023-02-07T05:40:10;101108.03;;;-7.09;100.00
23899;BME280;20544;50.018;20.010;2023-02-07T05:43:26;101114.84;;;-7.00;100.00
23899;BME280;20544;50.018;20.010;2023-02-07T05:46:43;101112.14;;;-6.89;100.00
23899;BME280;20544;50.018;20.010;2023-02-07T05:50:00;101101.05;;;-6.97;100.00
23899;BME280;20544;50.018;20.010;2023-02-07T05:53:17;101096.67;;;-6.91;100.00
23899;BME280;20544;50.018;20.010;2023-02-07T05:56:34;101094.84;;;-6.79;100.00
23899;BME280;20544;50.018;20.010;2023-02-07T05:59:50;101104.33;;;-6.80;100.00
23899;BME280;20544;50.018;20.010;2023-02-07T06:03:07;101102.63;;;-6.83;100.00
23899;BME280;20544;50.018;20.010;2023-02-07T06:06:24;101110.35;;;-6.81;100.00
23899;BME280;20544;50.018;20.010;2023-02-07T06:09:41;101120.65;;;-6.76;100.00
23899;BME280;20544;50.018;20.010;2023-02-07T06:12:58;101130.09;;;-6.74;100.00
23899;BME280;20544;50.018;20.010;2023-02-07T06:16:14;101128.26;;;-6.62;100.00
23899;BME280;20544;50.018;20.010;2023-02-07T06:19:30;101141.98;;;-6.57;100.00
23899;BME280;20544;50.018;20.010;2023-02-07T06:22:47;101150.68;;;-6.69;100.00
23899;BME280;20544;50.018;20.010;2023-02-07T06:26:04;101146.33;;;-6.62;100.00
23899;BME280;20544;50.018;20.010;2023-02-07T06:29:20;101151.56;;;-6.72;100.00
23899;BME280;20544;50.018;20.010;2023-02-07T06:32:37;101152.28;;;-6.56;100.00
23899;BME280;20544;50.018;20.010;2023-02-07T06:35:53;101150.49;;;-6.47;100.00
23899;BME280;20544;50.018;20.010;2023-02-07T06:39:10;101147.05;;;-6.46;100.00
23899;BME280;20544;50.018;20.010;2023-02-07T06:42:26;101156.50;;;-6.47;100.00
23899;BME280;20544;50.018;20.010;2023-02-07T06:45:43;101154.89;;;-6.57;100.00
23899;BME280;20544;50.018;20.010;2023-02-07T06:48:59;101149.92;;;-6.80;100.00
23899;BME280;20544;50.018;20.010;2023-02-07T06:52:16;101155.84;;;-6.69;100.00
23899;BME280;20544;50.018;20.010;2023-02-07T06:55:34;101143.92;;;-6.84;100.00
23899;BME280;20544;50.018;20.010;2023-02-07T06:58:52;101135.47;;;-7.02;100.00
23899;BME280;20544;50.018;20.010;2023-02-07T07:02:09;101126.91;;;-7.04;100.00
23899;BME280;20544;50.018;20.010;2023-02-07T07:05:26;101120.84;;;-7.00;100.00
23899;BME280;20544;50.018;20.010;2023-02-07T07:08:44;101122.55;;;-6.99;100.00
23899;BME280;20544;50.018;20.010;2023-02-07T07:12:00;101123.38;;;-6.93;100.00
23899;BME280;20544;50.018;20.010;2023-02-07T07:15:17;101119.07;;;-6.94;100.00
23899;BME280;20544;50.018;20.010;2023-02-07T07:18:34;101118.98;;;-6.84;100.00
23899;BME280;20544;50.018;20.010;2023-02-07T07:21:51;101118.98;;;-6.84;100.00
23899;BME280;20544;50.018;20.010;2023-02-07T07:25:08;101121.52;;;-6.80;100.00
23899;BME280;20544;50.018;20.010;2023-02-07T07:28:25;101129.28;;;-6.79;100.00
23899;BME280;20544;50.018;20.010;2023-02-07T07:31:42;101131.80;;;-6.73;100.00
23899;BME280;20544;50.018;20.010;2023-02-07T07:34:59;101129.09;;;-6.62;100.00
23899;BME280;20544;50.018;20.010;2023-02-07T07:38:16;101135.08;;;-6.55;100.00
23899;BME280;20544;50.018;20.010;2023-02-07T07:41:33;101142.84;;;-6.58;100.00
23899;BME280;20544;50.018;20.010;2023-02-07T07:44:51;101149.64;;;-6.50;100.00
23899;BME280;20544;50.018;20.010;2023-02-07T07:48:07;101146.11;;;-6.41;100.00
23899;BME280;20544;50.018;20.010;2023-02-07T07:51:27;101157.12;;;-6.23;100.00
23899;BME280;20544;50.018;20.010;2023-02-07T07:54:43;101139.76;;;-6.12;100.00
23899;BME280;20544;50.018;20.010;2023-02-07T08:01:03;101139.81;;;-6.15;100.00
23899;BME280;20544;50.018;20.010;2023-02-07T08:04:23;101141.52;;;-6.14;100.00
23899;BME280;20544;50.018;20.010;2023-02-07T08:07:39;101142.25;;;-6.03;100.00
23899;BME280;20544;50.018;20.010;2023-02-07T08:10:56;101142.20;;;-5.99;100.00
23899;BME280;20544;50.018;20.010;2023-02-07T08:14:15;101132.81;;;-6.05;100.00
23899;BME280;20544;50.018;20.010;2023-02-07T08:17:31;101132.83;;;-6.07;100.00
23899;BME280;20544;50.018;20.010;2023-02-07T08:20:49;101130.98;;;-5.98;100.00
23899;BME280;20544;50.018;20.010;2023-02-07T08:24:06;101126.69;;;-5.99;100.00
23899;BME280;20544;50.018;20.010;2023-02-07T08:27:23;101129.27;;;-5.99;100.00
23899;BME280;20544;50.018;20.010;2023-02-07T08:30:39;101128.34;;;-5.97;100.00
23899;BME280;20544;50.018;20.010;2023-02-07T08:33:56;101119.67;;;-5.91;100.00
23899;BME280;20544;50.018;20.010;2023-02-07T08:37:12;101112.69;;;-5.83;100.00
23899;BME280;20544;50.018;20.010;2023-02-07T08:40:29;101115.10;;;-5.72;100.00
23899;BME280;20544;50.018;20.010;2023-02-07T08:43:46;101116.70;;;-5.63;100.00
23899;BME280;20544;50.018;20.010;2023-02-07T08:47:03;101115.75;;;-5.56;100.00
23899;BME280;20544;50.018;20.010;2023-02-07T08:50:21;101120.05;;;-5.55;100.00
23899;BME280;20544;50.018;20.010;2023-02-07T08:53:38;101121.88;;;-5.63;100.00
23899;BME280;20544;50.018;20.010;2023-02-07T08:56:54;101114.91;;;-5.58;100.00
23899;BME280;20544;50.018;20.010;2023-02-07T09:00:13;101102.00;;;-5.60;100.00
23899;BME280;20544;50.018;20.010;2023-02-07T09:03:28;101105.22;;;-5.44;100.00
23899;BME280;20544;50.018;20.010;2023-02-07T09:06:44;101108.56;;;-5.36;100.00
23899;BME280;20544;50.018;20.010;2023-02-07T09:10:01;101107.63;;;-5.31;100.00
23899;BME280;20544;50.018;20.010;2023-02-07T09:13:18;101097.44;;;-5.41;100.00
23899;BME280;20544;50.018;20.010;2023-02-07T09:16:35;101090.35;;;-5.29;100.00
23899;BME280;20544;50.018;20.010;2023-02-07T09:19:52;101091.23;;;-5.30;100.00
23899;BME280;20544;50.018;20.010;2023-02-07T09:23:09;101079.94;;;-5.26;100.00
23899;BME280;20544;50.018;20.010;2023-02-07T09:26:31;101071.37;;;-5.28;100.00
23899;BME280;20544;50.018;20.010;2023-02-07T09:29:49;101078.25;;;-5.29;100.00
23899;BME280;20544;50.018;20.010;2023-02-07T09:33:05;101093.84;;;-5.32;100.00
23899;BME280;20544;50.018;20.010;2023-02-07T09:36:24;101104.10;;;-5.26;100.00
23899;BME280;20544;50.018;20.010;2023-02-07T09:39:39;101087.77;;;-5.31;100.00
23899;BME280;20544;50.018;20.010;2023-02-07T09:42:59;101080.64;;;-5.16;100.00
23899;BME280;20544;50.018;20.010;2023-02-07T09:46:23;101079.70;;;-5.12;100.00
23899;BME280;20544;50.018;20.010;2023-02-07T09:49:46;101090.13;;;-5.15;100.00
23899;BME280;20544;50.018;20.010;2023-02-07T09:53:04;101087.47;;;-5.12;100.00
23899;BME280;20544;50.018;20.010;2023-02-07T09:56:26;101082.92;;;-4.98;100.00
23899;BME280;20544;50.018;20.010;2023-02-07T09:59:48;101089.82;;;-4.97;100.00
23899;BME280;20544;50.018;20.010;2023-02-07T10:03:10;101083.66;;;-4.90;100.00
23899;BME280;20544;50.018;20.010;2023-02-07T10:06:29;101074.19;;;-4.92;100.00
23899;BME280;20544;50.018;20.010;2023-02-07T10:09:46;101077.02;;;-5.06;100.00
23899;BME280;20544;50.018;20.010;2023-02-07T10:13:13;101073.59;;;-5.07;100.00
23899;BME280;20544;50.018;20.010;2023-02-07T10:16:56;101083.94;;;-5.07;100.00
23899;BME280;20544;50.018;20.010;2023-02-07T10:20:33;101087.64;;;-5.22;100.00
23899;BME280;20544;50.018;20.010;2023-02-07T10:24:17;101080.64;;;-5.16;100.00
23899;BME280;20544;50.018;20.010;2023-02-07T10:27:47;101085.79;;;-5.15;100.00
23899;BME280;20544;50.018;20.010;2023-02-07T10:31:10;101075.30;;;-5.07;100.00
23899;BME280;20544;50.018;20.010;2023-02-07T10:34:32;101079.53;;;-5.01;100.00
23899;BME280;20544;50.018;20.010;2023-02-07T10:37:52;101072.75;;;-5.09;100.00
23899;BME280;20544;50.018;20.010;2023-02-07T10:41:14;101071.09;;;-5.13;100.00
23899;BME280;20544;50.018;20.010;2023-02-07T10:44:31;101077.95;;;-5.10;100.00
23899;BME280;20544;50.018;20.010;2023-02-07T10:47:47;101089.22;;;-5.13;100.00
23899;BME280;20544;50.018;20.010;2023-02-07T10:51:15;101075.30;;;-5.07;100.00
23899;BME280;20544;50.018;20.010;2023-02-07T10:54:52;101078.70;;;-5.02;100.00
23899;BME280;20544;50.018;20.010;2023-02-07T10:58:21;101081.19;;;-4.97;100.00
23899;BME280;20544;50.018;20.010;2023-02-07T11:01:38;101080.23;;;-4.92;100.00
23899;BME280;20544;50.018;20.010;2023-02-07T11:04:55;101074.08;;;-4.86;100.00
23899;BME280;20544;50.018;20.010;2023-02-07T11:08:23;101064.55;;;-4.84;100.00
23899;BME280;20544;50.018;20.010;2023-02-07T11:11:42;101051.50;;;-4.78;100.00
23899;BME280;20544;50.018;20.010;2023-02-07T11:15:03;101053.89;;;-4.67;100.00
23899;BME280;20544;50.018;20.010;2023-02-07T11:18:33;101055.38;;;-4.53;100.00
23899;BME280;20544;50.018;20.010;2023-02-07T11:21:55;101051.91;;;-4.54;100.00
23899;BME280;20544;50.018;20.010;2023-02-07T11:25:19;101049.03;;;-4.39;100.00
23899;BME280;20544;50.018;20.010;2023-02-07T11:28:42;101047.32;;;-4.40;100.00
23899;BME280;20544;50.018;20.010;2023-02-07T11:32:00;101050.70;;;-4.36;100.00
23899;BME280;20544;50.018;20.010;2023-02-07T11:35:20;101041.77;;;-4.23;100.00
23899;BME280;20544;50.018;20.010;2023-02-07T11:38:40;101044.31;;;-4.19;100.00
23899;BME280;20544;50.018;20.010;2023-02-07T11:42:01;101047.56;;;-4.10;100.00
23899;BME280;20544;50.018;20.010;2023-02-07T11:45:25;101045.52;;;-3.95;100.00
23899;BME280;20544;50.018;20.010;2023-02-07T11:48:45;101048.76;;;-3.85;100.00
23899;BME280;20544;50.018;20.010;2023-02-07T11:52:04;101048.66;;;-3.81;100.00
23899;BME280;20544;50.018;20.010;2023-02-07T11:55:24;101047.70;;;-3.77;100.00
23899;BME280;20544;50.018;20.010;2023-02-07T11:58:43;101037.97;;;-3.67;100.00
23899;BME280;20544;50.018;20.010;2023-02-07T12:02:05;101036.80;;;-3.53;100.00
23899;BME280;20544;50.018;20.010;2023-02-07T12:05:27;101030.48;;;-3.43;100.00
23899;BME280;20544;50.018;20.010;2023-02-07T12:08:46;101014.81;;;-3.38;100.00
23899;BME280;20544;50.018;20.010;2023-02-07T12:12:08;101017.25;;;-3.32;100.00
23899;BME280;20544;50.018;20.010;2023-02-07T12:15:30;101016.32;;;-3.30;100.00
23899;BME280;20544;50.018;20.010;2023-02-07T12:18:53;101025.62;;;-3.21;100.00
23899;BME280;20544;50.018;20.010;2023-02-07T12:22:15;101024.11;;;-3.30;100.00
23899;BME280;20544;50.018;20.010;2023-02-07T12:25:37;101009.11;;;-3.18;100.00
23899;BME280;20544;50.018;20.010;2023-02-07T12:29:06;101003.30;;;-3.28;100.00
23899;BME280;20544;50.018;20.010;2023-02-07T12:32:32;101003.30;;;-3.28;100.00
23899;BME280;20544;50.018;20.010;2023-02-07T12:35:56;101002.67;;;-3.38;100.00
23899;BME280;20544;50.018;20.010;2023-02-07T12:39:19;101014.41;;;-3.23;100.00
23899;BME280;20544;50.018;20.010;2023-02-07T12:42:41;101018.34;;;-3.06;100.00
23899;BME280;20544;50.018;20.010;2023-02-07T12:46:17;101018.34;;;-3.06;100.00
23899;BME280;20544;50.018;20.010;2023-02-07T12:49:51;101023.38;;;-3.00;100.00
23899;BME280;20544;50.018;20.010;2023-02-07T12:53:27;101027.81;;;-3.05;100.00
23899;BME280;20544;50.018;20.010;2023-02-07T12:56:55;101032.89;;;-3.01;100.00
23899;BME280;20544;50.018;20.010;2023-02-07T13:00:18;101034.83;;;-3.09;100.00
23899;BME280;20544;50.018;20.010;2023-02-07T13:03:44;101042.86;;;-3.18;100.00
23899;BME280;20544;50.018;20.010;2023-02-07T13:07:37;101031.55;;;-3.16;100.00
23899;BME280;20544;50.018;20.010;2023-02-07T13:11:05;101040.16;;;-3.14;100.00
23899;BME280;20544;50.018;20.010;2023-02-07T13:14:33;101031.50;;;-3.14;100.00
23899;BME280;20544;50.018;20.010;2023-02-07T13:17:57;101041.09;;;-3.16;100.00
23899;BME280;20544;50.018;20.010;2023-02-07T13:21:20;101026.39;;;-3.17;100.00
23899;BME280;20544;50.018;20.010;2023-02-07T13:24:41;101018.77;;;-3.23;100.00
23899;BME280;20544;50.018;20.010;2023-02-07T13:28:02;101026.75;;;-3.31;100.00
23899;BME280;20544;50.018;20.010;2023-02-07T13:31:23;101026.59;;;-3.25;100.00
23899;BME280;20544;50.018;20.010;2023-02-07T13:34:45;101022.14;;;-3.20;100.00
23899;BME280;20544;50.018;20.010;2023-02-07T13:38:08;101035.03;;;-3.17;100.00
23899;BME280;20544;50.018;20.010;2023-02-07T13:41:37;101032.48;;;-3.18;100.00
23899;BME280;20544;50.018;20.010;2023-02-07T13:45:00;101041.11;;;-3.18;100.00
23899;BME280;20544;50.018;20.010;2023-02-07T13:48:27;101043.06;;;-3.26;100.00
23899;BME280;20544;50.018;20.010;2023-02-07T13:51:56;101040.81;;;-3.40;100.00
23899;BME280;20544;50.018;20.010;2023-02-07T13:55:17;101037.34;;;-3.41;100.00
23899;BME280;20544;50.018;20.010;2023-02-07T13:58:55;101029.55;;;-3.41;100.00
23899;BME280;20544;50.018;20.010;2023-02-07T14:02:26;101019.11;;;-3.37;100.00
23899;BME280;20544;50.018;20.010;2023-02-07T14:05:44;101023.22;;;-3.29;100.00
23899;BME280;20544;50.018;20.010;2023-02-07T14:09:05;101021.25;;;-3.19;100.00
23899;BME280;20544;50.018;20.010;2023-02-07T14:12:26;101022.03;;;-3.15;100.00
23899;BME280;20544;50.018;20.010;2023-02-07T14:15:58;101015.70;;;-3.05;100.00
23899;BME280;20544;50.018;20.010;2023-02-07T14:19:46;101006.09;;;-3.03;100.00
23899;BME280;20544;50.018;20.010;2023-02-07T14:23:11;101010.34;;;-2.99;100.00
23899;BME280;20544;50.018;20.010;2023-02-07T14:26:58;101019.75;;;-2.95;100.00
23899;BME280;20544;50.018;20.010;2023-02-07T14:30:28;101019.63;;;-2.90;100.00
23899;BME280;20544;50.018;20.010;2023-02-07T14:37:39;101027.31;;;-2.85;100.00
23899;BME280;20544;50.018;20.010;2023-02-07T14:41:05;101025.05;;;-2.99;100.00
23899;BME280;20544;50.018;20.010;2023-02-07T14:44:27;101035.33;;;-2.95;100.00
23899;BME280;20544;50.018;20.010;2023-02-07T14:47:47;101033.57;;;-2.94;100.00
23899;BME280;20544;50.018;20.010;2023-02-07T14:51:18;101032.52;;;-2.87;100.00
23899;BME280;20544;50.018;20.010;2023-02-07T14:54:41;101042.14;;;-2.90;100.00
23899;BME280;20544;50.018;20.010;2023-02-07T14:58:02;101042.75;;;-2.81;100.00
23899;BME280;20544;50.018;20.010;2023-02-07T15:01:25;101041.97;;;-2.83;100.00
23899;BME280;20544;50.018;20.010;2023-02-07T15:04:43;101040.16;;;-2.81;100.00
23899;BME280;20544;50.018;20.010;2023-02-07T15:08:14;101047.00;;;-2.77;100.00
23899;BME280;20544;50.018;20.010;2023-02-07T15:11:31;101046.08;;;-2.76;100.00
23899;BME280;20544;50.018;20.010;2023-02-07T15:14:48;101042.75;;;-2.81;100.00
23899;BME280;20544;50.018;20.010;2023-02-07T15:18:13;101046.66;;;-2.97;100.00
23899;BME280;20544;50.018;20.010;2023-02-07T15:21:36;101049.09;;;-2.91;100.00
23899;BME280;20544;50.018;20.010;2023-02-07T15:24:56;101042.30;;;-2.97;100.00
23899;BME280;20544;50.018;20.010;2023-02-07T15:28:22;101037.88;;;-2.93;100.00
23899;BME280;20544;50.018;20.010;2023-02-07T15:31:40;101042.45;;;-3.01;100.00
23899;BME280;20544;50.018;20.010;2023-02-07T15:35:06;101044.95;;;-2.98;100.00
23899;BME280;20544;50.018;20.010;2023-02-07T15:38:27;101043.97;;;-2.94;100.00
23899;BME280;20544;50.018;20.010;2023-02-07T15:41:45;101046.56;;;-2.94;100.00
23899;BME280;20544;50.018;20.010;2023-02-07T15:45:04;101050.80;;;-2.90;100.00
23899;BME280;20544;50.018;20.010;2023-02-07T15:48:23;101066.23;;;-2.84;100.00
23899;BME280;20544;50.018;20.010;2023-02-07T15:51:42;101071.49;;;-2.87;100.00
23899;BME280;20544;50.018;20.010;2023-02-07T15:54:59;101072.53;;;-2.94;100.00
23899;BME280;20544;50.018;20.010;2023-02-07T15:58:22;101074.09;;;-2.87;100.00
23899;BME280;20544;50.018;20.010;2023-02-07T16:01:40;101086.35;;;-2.92;100.00
23899;BME280;20544;50.018;20.010;2023-02-07T16:04:58;101085.47;;;-2.91;100.00
23899;BME280;20544;50.018;20.010;2023-02-07T16:08:35;101086.44;;;-2.95;100.00
23899;BME280;20544;50.018;20.010;2023-02-07T16:11:53;101083.75;;;-2.92;100.00
23899;BME280;20544;50.018;20.010;2023-02-07T16:15:25;101086.28;;;-2.89;100.00
23899;BME280;20544;50.018;20.010;2023-02-07T16:18:44;101092.48;;;-2.95;100.00
23899;BME280;20544;50.018;20.010;2023-02-07T16:22:04;101093.30;;;-2.93;100.00
23899;BME280;20544;50.018;20.010;2023-02-07T16:25:26;101100.07;;;-2.87;100.00
23899;BME280;20544;50.018;20.010;2023-02-07T16:28:45;101100.07;;;-2.87;100.00
23899;BME280;20544;50.018;20.010;2023-02-07T16:32:02;101107.86;;;-2.87;100.00
23899;BME280;20544;50.018;20.010;2023-02-07T16:35:21;101100.94;;;-2.86;100.00
23899;BME280;20544;50.018;20.010;2023-02-07T16:38:38;101109.58;;;-2.86;100.00
23899;BME280;20544;50.018;20.010;2023-02-07T16:41:59;101110.40;;;-2.84;100.00
23899;BME280;20544;50.018;20.010;2023-02-07T16:45:22;101105.16;;;-2.82;100.00
23899;BME280;20544;50.018;20.010;2023-02-07T16:48:40;101104.11;;;-2.75;100.00
23899;BME280;20544;50.018;20.010;2023-02-07T16:51:57;101106.87;;;-2.81;100.00
23899;BME280;20544;50.018;20.010;2023-02-07T16:55:13;101110.35;;;-2.82;100.00
23899;BME280;20544;50.018;20.010;2023-02-07T16:58:32;101107.80;;;-2.84;100.00
23899;BME280;20544;50.018;20.010;2023-02-07T17:01:50;101111.13;;;-2.79;100.00
23899;BME280;20544;50.018;20.010;2023-02-07T17:05:08;101106.82;;;-2.80;100.00
23899;BME280;20544;50.018;20.010;2023-02-07T17:08:26;101112.11;;;-2.83;100.00